Evanston Uinta County Burns Field
KEVW : now visible

Airfield :











YOU CAN JOIN US ON...

 
LOGIN :

Register | Disclaimer

   EN    FR    IT 

 









Legend :    VFR   Marginal VFR   IFR   Intensive IFR   Very Intensive IFR
Visi :
Ceiling :
>= 8 km
>= 3000ft
5 to 8 km
1000 to 3000 ft
1500m to 5 km
500 to 1000 ft
800 to 1500m
200 to 500 ft
< 800m
< 200 ft
Symbols :   Thunderstorms  Fog  Heavy snow  Heavy precipitations  Wind > 20 kt






- Airport Elevation : 7143 ft


KEVW - Evanston Uinta County Burns Field

CURRENT METAR :
  • 142036Z AUTO 25020KT 3/4SM -SN BR FEW010 BKN014 OVC027 M03/M05 A2972 RMK AO2 PK WND 26028/2004 P0000 T10331050

EXPIRED METARs :
  • 142011Z AUTO 25022G28KT 1/4SM SN FZFG FEW009 BKN014 BKN021 M04/M06 A2970 RMK AO2 PK WND 26028/2004 P0000 T10391061
  • 142005Z AUTO 26022G28KT 1 1/2SM -SN BR FEW009 BKN023 BKN049 M03/M06 A2970 RMK AO2 PK WND 26028/2004 P0000 T10331056
  • 141953Z AUTO 26013KT 2SM -SN BR FEW011 BKN022 BKN042 M03/M05 A2970 RMK AO2 PK WND 25027/1940 SLP071 P0000 T10331050
  • 141940Z AUTO 25022G27KT 1 1/2SM -SN BR FEW009 BKN020 BKN041 M03/M05 A2970 RMK AO2 PK WND 25027/1940 P0000 T10331050
  • 141926Z AUTO 23017KT 3SM -SN BR BKN009 BKN015 BKN021 M03/M04 A2970 RMK AO2 P0000 T10281039
  • 141906Z AUTO 25013KT 1/2SM SN FZFG FEW006 BKN018 OVC028 M03/M04 A2970 RMK AO2 P0000 T10281039
  • 141853Z AUTO 24016KT 1 1/2SM -SN BR FEW006 BKN035 OVC060 M03/M04 A2971 RMK AO2 SLP073 P0000 T10281044
  • 141817Z AUTO 24017KT 3SM -SN BR FEW013 BKN046 OVC060 M03/M04 A2971 RMK AO2 P0000 T10281039
  • 141806Z AUTO 24016KT 1 3/4SM -SN BR FEW004 BKN034 OVC045 M03/M04 A2972 RMK AO2 P0000 T10281039
  • 141756Z AUTO 24019KT 3SM -SN BR BKN004 BKN015 OVC048 M02/M04 A2972 RMK AO2 P0000 T10221039

TAF KEVW
Valid from the 14 at 18:00 until the 15 at 18:00 UTC


141720Z 1418/1518 22012KT P6SM BKN045 OVC080
FM141900 27015KT 6SM -SHSN OVC050
FM150000 27009KT P6SM OVC025
FM150300 13005KT 6SM BR BKN250



MET'MAP, your aeronautical weather chart ! - Copyright ORBIFLY December 2007 - Disclaimer

ORBIFLY MET'MAP TEAM :

Programming & Development : Alexandra Zaïnal
Concept & original design : Baudouin d'Aumeries
Assistance for programming : Marc-Olivier Méhu
Technical & hardware support : Manuel Goepfert

Contact : metmap@orbifly.com




SOURCES & CREDITS :

   NOAA       Earth
Advisory